RYR52UR LROP-LIPH
Flight info
| Callsign | RYR52UR |
|---|---|
| Flight time | 1h 42m |
| Altitude | 36000 |
| Route | POLUN DCT ANASA DCT PUL DCT LABIN/N0347F180 L614 CHI N503 INBUT |
| Aircraft | B738/M-SDE2E3FGHIRWXY/LB1 |
Departure
| Time | 2026-05-05 15:54 |
|---|---|
| Airport | Bucharest Henri Coandă International Airport (LROP) |
Arrival
| Time | 2026-05-05 17:37 |
|---|---|
| Airport | Treviso Airport (LIPH) |
| Time | Latitude | Longitude | Altitude | Speed | Heading |
|---|---|---|---|---|---|
| 2026-05-05 15:15 | 44.57264 | 26.08099 | 322 ft | 0 kts | 354° |
| 2026-05-05 15:38 | 44.57262 | 26.08099 | 322 ft | 2 kts | 354° |
| 2026-05-05 15:38 | 44.57245 | 26.08101 | 322 ft | 2 kts | 354° |
| 2026-05-05 15:39 | 44.57229 | 26.08104 | 321 ft | 2 kts | 354° |
| 2026-05-05 15:39 | 44.57213 | 26.08106 | 319 ft | 2 kts | 354° |
| 2026-05-05 15:39 | 44.57202 | 26.08074 | 333 ft | 0 kts | 85° |
| 2026-05-05 15:46 | 44.57202 | 26.08085 | 329 ft | 4 kts | 83° |
| 2026-05-05 15:46 | 44.57208 | 26.08160 | 319 ft | 11 kts | 83° |
| 2026-05-05 15:46 | 44.57218 | 26.08290 | 322 ft | 15 kts | 84° |
| 2026-05-05 15:46 | 44.57230 | 26.08439 | 322 ft | 15 kts | 84° |
| 2026-05-05 15:47 | 44.57284 | 26.08497 | 322 ft | 9 kts | 353° |
| 2026-05-05 15:47 | 44.57326 | 26.08491 | 320 ft | 9 kts | 354° |
| 2026-05-05 15:47 | 44.57421 | 26.08477 | 322 ft | 13 kts | 354° |
| 2026-05-05 15:47 | 44.57494 | 26.08538 | 322 ft | 15 kts | 76° |
| 2026-05-05 15:48 | 44.57508 | 26.08700 | 322 ft | 19 kts | 83° |
| 2026-05-05 15:48 | 44.57524 | 26.08900 | 322 ft | 22 kts | 83° |
| 2026-05-05 15:48 | 44.57541 | 26.09132 | 321 ft | 25 kts | 84° |
| 2026-05-05 15:48 | 44.57559 | 26.09378 | 322 ft | 25 kts | 84° |
| 2026-05-05 15:49 | 44.57576 | 26.09608 | 321 ft | 23 kts | 84° |
| 2026-05-05 15:49 | 44.57593 | 26.09828 | 321 ft | 22 kts | 84° |
| 2026-05-05 15:49 | 44.57608 | 26.10041 | 321 ft | 22 kts | 84° |
| 2026-05-05 15:49 | 44.57625 | 26.10249 | 321 ft | 21 kts | 84° |
| 2026-05-05 15:50 | 44.57641 | 26.10462 | 321 ft | 23 kts | 83° |
| 2026-05-05 15:50 | 44.57660 | 26.10703 | 321 ft | 26 kts | 84° |
| 2026-05-05 15:50 | 44.57680 | 26.10973 | 321 ft | 29 kts | 84° |
| 2026-05-05 15:50 | 44.57702 | 26.11266 | 321 ft | 31 kts | 84° |
| 2026-05-05 15:51 | 44.57726 | 26.11582 | 321 ft | 34 kts | 84° |
| 2026-05-05 15:51 | 44.57751 | 26.11917 | 321 ft | 35 kts | 84° |
| 2026-05-05 15:51 | 44.57776 | 26.12254 | 321 ft | 34 kts | 84° |
| 2026-05-05 15:51 | 44.57800 | 26.12571 | 320 ft | 31 kts | 84° |
| 2026-05-05 15:52 | 44.57821 | 26.12818 | 321 ft | 20 kts | 72° |
| 2026-05-05 15:52 | 44.57862 | 26.12864 | 320 ft | 0 kts | 354° |
| 2026-05-05 15:52 | 44.57867 | 26.12862 | 320 ft | 2 kts | 350° |
| 2026-05-05 15:53 | 44.57887 | 26.12853 | 321 ft | 5 kts | 336° |
| 2026-05-05 15:53 | 44.57922 | 26.12823 | 321 ft | 7 kts | 323° |
| 2026-05-05 15:53 | 44.57971 | 26.12760 | 322 ft | 11 kts | 303° |
| 2026-05-05 15:53 | 44.57978 | 26.12630 | 322 ft | 19 kts | 264° |
| 2026-05-05 15:54 | 44.57944 | 26.12181 | 321 ft | 81 kts | 264° |
| 2026-05-05 15:54 | 44.57861 | 26.11088 | 321 ft | 142 kts | 264° |
| 2026-05-05 15:54 | 44.57729 | 26.09482 | 437 ft | 183 kts | 263° |
| 2026-05-05 15:54 | 44.57596 | 26.07721 | 1294 ft | 178 kts | 262° |
| 2026-05-05 15:55 | 44.57473 | 26.06048 | 2184 ft | 172 kts | 263° |
| 2026-05-05 15:55 | 44.57350 | 26.04320 | 2629 ft | 191 kts | 263° |
| 2026-05-05 15:55 | 44.57207 | 26.02350 | 2876 ft | 213 kts | 263° |
| 2026-05-05 15:55 | 44.57069 | 26.00210 | 3102 ft | 231 kts | 264° |
| 2026-05-05 15:56 | 44.56932 | 25.97926 | 3537 ft | 238 kts | 265° |
| 2026-05-05 15:56 | 44.56793 | 25.95592 | 4072 ft | 241 kts | 265° |
| 2026-05-05 15:56 | 44.56653 | 25.93242 | 4613 ft | 243 kts | 266° |
| 2026-05-05 15:56 | 44.56511 | 25.90860 | 5091 ft | 246 kts | 266° |
| 2026-05-05 15:57 | 44.56364 | 25.88449 | 5542 ft | 251 kts | 266° |
| 2026-05-05 15:57 | 44.56216 | 25.85988 | 6003 ft | 258 kts | 267° |
| 2026-05-05 15:57 | 44.56060 | 25.83393 | 6261 ft | 275 kts | 267° |
| 2026-05-05 15:57 | 44.55896 | 25.80687 | 6906 ft | 278 kts | 267° |
| 2026-05-05 15:58 | 44.55729 | 25.77978 | 7651 ft | 280 kts | 267° |
| 2026-05-05 15:58 | 44.55560 | 25.75242 | 8351 ft | 283 kts | 268° |
| 2026-05-05 15:58 | 44.55388 | 25.72475 | 9046 ft | 286 kts | 268° |
| 2026-05-05 15:58 | 44.55215 | 25.69679 | 9742 ft | 289 kts | 268° |
| 2026-05-05 15:59 | 44.55038 | 25.66841 | 10308 ft | 297 kts | 268° |
| 2026-05-05 15:59 | 44.54853 | 25.63848 | 10465 ft | 319 kts | 268° |
| 2026-05-05 15:59 | 44.54655 | 25.60651 | 10628 ft | 339 kts | 268° |
| 2026-05-05 15:59 | 44.54443 | 25.57273 | 10934 ft | 353 kts | 268° |
| 2026-05-05 16:00 | 44.54222 | 25.53806 | 11473 ft | 359 kts | 268° |
| 2026-05-05 16:00 | 44.53996 | 25.50309 | 12143 ft | 362 kts | 268° |
| 2026-05-05 16:00 | 44.53770 | 25.46828 | 12756 ft | 366 kts | 268° |
| 2026-05-05 16:00 | 44.53537 | 25.43253 | 13410 ft | 370 kts | 268° |
| 2026-05-05 16:01 | 44.53301 | 25.39639 | 14036 ft | 375 kts | 268° |
| 2026-05-05 16:01 | 44.53062 | 25.35987 | 14647 ft | 378 kts | 267° |
| 2026-05-05 16:01 | 44.52820 | 25.32299 | 15282 ft | 381 kts | 267° |
| 2026-05-05 16:01 | 44.52574 | 25.28576 | 15918 ft | 385 kts | 267° |
| 2026-05-05 16:02 | 44.52325 | 25.24827 | 16537 ft | 388 kts | 267° |
| 2026-05-05 16:02 | 44.52073 | 25.21037 | 17158 ft | 392 kts | 267° |
| 2026-05-05 16:02 | 44.51817 | 25.17223 | 17804 ft | 394 kts | 267° |
| 2026-05-05 16:02 | 44.51559 | 25.13392 | 18439 ft | 397 kts | 267° |
| 2026-05-05 16:03 | 44.51297 | 25.09513 | 18887 ft | 402 kts | 266° |
| 2026-05-05 16:03 | 44.51031 | 25.05594 | 19413 ft | 405 kts | 266° |
| 2026-05-05 16:03 | 44.50761 | 25.01656 | 19993 ft | 407 kts | 266° |
| 2026-05-05 16:03 | 44.50489 | 24.97692 | 20542 ft | 409 kts | 266° |
| 2026-05-05 16:04 | 44.50214 | 24.93718 | 21070 ft | 412 kts | 266° |
| 2026-05-05 16:04 | 44.50030 | 24.91067 | 21412 ft | 413 kts | 266° |
| 2026-05-05 16:04 | 44.49751 | 24.87051 | 21923 ft | 416 kts | 266° |
| 2026-05-05 16:04 | 44.49468 | 24.83004 | 22435 ft | 418 kts | 266° |
| 2026-05-05 16:05 | 44.49184 | 24.78970 | 22927 ft | 421 kts | 266° |
| 2026-05-05 16:05 | 44.48895 | 24.74872 | 23409 ft | 424 kts | 266° |
| 2026-05-05 16:05 | 44.48507 | 24.69415 | 23967 ft | 426 kts | 266° |
| 2026-05-05 16:05 | 44.48307 | 24.66617 | 24249 ft | 428 kts | 266° |
| 2026-05-05 16:06 | 44.48008 | 24.62465 | 24650 ft | 430 kts | 266° |
| 2026-05-05 16:06 | 44.47707 | 24.58293 | 25033 ft | 432 kts | 266° |
| 2026-05-05 16:06 | 44.47403 | 24.54097 | 25409 ft | 434 kts | 267° |
| 2026-05-05 16:06 | 44.47095 | 24.49879 | 25795 ft | 436 kts | 267° |
| 2026-05-05 16:07 | 44.46785 | 24.45643 | 26170 ft | 438 kts | 267° |
| 2026-05-05 16:07 | 44.46472 | 24.41396 | 26522 ft | 440 kts | 267° |
| 2026-05-05 16:07 | 44.46156 | 24.37123 | 26875 ft | 442 kts | 267° |
| 2026-05-05 16:07 | 44.45837 | 24.32840 | 27220 ft | 444 kts | 267° |
| 2026-05-05 16:08 | 44.45515 | 24.28534 | 27572 ft | 446 kts | 267° |
| 2026-05-05 16:08 | 44.45190 | 24.24214 | 27904 ft | 448 kts | 267° |
| 2026-05-05 16:08 | 44.44862 | 24.19869 | 28239 ft | 449 kts | 267° |
| 2026-05-05 16:08 | 44.44531 | 24.15508 | 28573 ft | 451 kts | 267° |
| 2026-05-05 16:09 | 44.44197 | 24.11135 | 28891 ft | 453 kts | 267° |
| 2026-05-05 16:09 | 44.43860 | 24.06746 | 29207 ft | 454 kts | 267° |
| 2026-05-05 16:09 | 44.43525 | 24.02409 | 29613 ft | 454 kts | 266° |
| 2026-05-05 16:09 | 44.43185 | 23.98035 | 30116 ft | 450 kts | 266° |
| 2026-05-05 16:10 | 44.42845 | 23.93694 | 30538 ft | 448 kts | 266° |
| 2026-05-05 16:10 | 44.42506 | 23.89368 | 30880 ft | 447 kts | 266° |
| 2026-05-05 16:10 | 44.42166 | 23.85046 | 31196 ft | 447 kts | 266° |
| 2026-05-05 16:10 | 44.41825 | 23.80733 | 31546 ft | 445 kts | 266° |
| 2026-05-05 16:11 | 44.41484 | 23.76436 | 31900 ft | 444 kts | 266° |
| 2026-05-05 16:11 | 44.40455 | 23.63604 | 32890 ft | 441 kts | 266° |
| 2026-05-05 16:12 | 44.40110 | 23.59346 | 33207 ft | 440 kts | 266° |
| 2026-05-05 16:12 | 44.39417 | 23.50854 | 33835 ft | 438 kts | 266° |
| 2026-05-05 16:13 | 44.38362 | 23.38037 | 33977 ft | 444 kts | 266° |
| 2026-05-05 16:13 | 44.37654 | 23.29584 | 33968 ft | 436 kts | 266° |
| 2026-05-05 16:14 | 44.36232 | 23.12761 | 33974 ft | 436 kts | 266° |
| 2026-05-05 16:15 | 44.34946 | 22.97814 | 33974 ft | 436 kts | 266° |
| 2026-05-05 16:16 | 44.33485 | 22.81092 | 33969 ft | 437 kts | 265° |
| 2026-05-05 16:17 | 44.32377 | 22.68601 | 33968 ft | 438 kts | 265° |
| 2026-05-05 16:18 | 44.31337 | 22.55953 | 34236 ft | 435 kts | 271° |
| 2026-05-05 16:18 | 44.31916 | 22.47593 | 34607 ft | 433 kts | 281° |
| 2026-05-05 16:19 | 44.32375 | 22.43447 | 34879 ft | 431 kts | 281° |
| 2026-05-05 16:19 | 44.32837 | 22.39319 | 35142 ft | 430 kts | 281° |
| 2026-05-05 16:19 | 44.33738 | 22.31071 | 35591 ft | 430 kts | 281° |
| 2026-05-05 16:20 | 44.34608 | 22.22806 | 35979 ft | 430 kts | 280° |
| 2026-05-05 16:20 | 44.35463 | 22.14492 | 35967 ft | 432 kts | 280° |
| 2026-05-05 16:22 | 44.37536 | 21.93969 | 35976 ft | 423 kts | 280° |
| 2026-05-05 16:23 | 44.39155 | 21.77712 | 35977 ft | 422 kts | 280° |
| 2026-05-05 16:23 | 44.40359 | 21.65456 | 35978 ft | 425 kts | 279° |
| 2026-05-05 16:24 | 44.41159 | 21.57236 | 35974 ft | 427 kts | 279° |
| 2026-05-05 16:25 | 44.42354 | 21.44836 | 35959 ft | 430 kts | 279° |
| 2026-05-05 16:25 | 44.43542 | 21.32355 | 35953 ft | 432 kts | 279° |
| 2026-05-05 16:26 | 44.45107 | 21.15684 | 35943 ft | 432 kts | 279° |
| 2026-05-05 16:27 | 44.45879 | 21.07362 | 35945 ft | 430 kts | 279° |
| 2026-05-05 16:27 | 44.46642 | 20.99073 | 35943 ft | 429 kts | 279° |
| 2026-05-05 16:28 | 44.47392 | 20.90857 | 35941 ft | 427 kts | 279° |
| 2026-05-05 16:28 | 44.48138 | 20.82616 | 35944 ft | 426 kts | 279° |
| 2026-05-05 16:29 | 44.48876 | 20.74401 | 35944 ft | 424 kts | 279° |
| 2026-05-05 16:29 | 44.49606 | 20.66204 | 35943 ft | 424 kts | 279° |
| 2026-05-05 16:30 | 44.50329 | 20.58021 | 35941 ft | 423 kts | 279° |
| 2026-05-05 16:30 | 44.51045 | 20.49849 | 35944 ft | 423 kts | 279° |
| 2026-05-05 16:31 | 44.51755 | 20.41669 | 35944 ft | 423 kts | 279° |
| 2026-05-05 16:31 | 44.52460 | 20.33486 | 35936 ft | 423 kts | 279° |
| 2026-05-05 16:32 | 44.53160 | 20.25290 | 35940 ft | 424 kts | 279° |
| 2026-05-05 16:32 | 44.53856 | 20.17072 | 35940 ft | 424 kts | 279° |
| 2026-05-05 16:33 | 44.54545 | 20.08857 | 35941 ft | 424 kts | 279° |
| 2026-05-05 16:33 | 44.55229 | 20.00634 | 35934 ft | 425 kts | 278° |
| 2026-05-05 16:34 | 44.55908 | 19.92408 | 35941 ft | 425 kts | 278° |
| 2026-05-05 16:34 | 44.56581 | 19.84170 | 35939 ft | 425 kts | 278° |
| 2026-05-05 16:35 | 44.57248 | 19.75926 | 35938 ft | 426 kts | 278° |
| 2026-05-05 16:35 | 44.57906 | 19.67726 | 35936 ft | 426 kts | 278° |
| 2026-05-05 16:36 | 44.58562 | 19.59471 | 35933 ft | 425 kts | 278° |
| 2026-05-05 16:36 | 44.59212 | 19.51224 | 35938 ft | 425 kts | 278° |
| 2026-05-05 16:37 | 44.59855 | 19.42983 | 35938 ft | 425 kts | 278° |
| 2026-05-05 16:37 | 44.60492 | 19.34734 | 35941 ft | 425 kts | 278° |
| 2026-05-05 16:38 | 44.61123 | 19.26498 | 35941 ft | 425 kts | 278° |
| 2026-05-05 16:38 | 44.61748 | 19.18255 | 35940 ft | 425 kts | 278° |
| 2026-05-05 16:39 | 44.62368 | 19.09994 | 35951 ft | 425 kts | 277° |
| 2026-05-05 16:39 | 44.62978 | 19.01797 | 35953 ft | 425 kts | 277° |
| 2026-05-05 16:40 | 44.63586 | 18.93537 | 35958 ft | 425 kts | 277° |
| 2026-05-05 16:40 | 44.64188 | 18.85277 | 35960 ft | 425 kts | 277° |
| 2026-05-05 16:41 | 44.64785 | 18.77004 | 35960 ft | 426 kts | 277° |
| 2026-05-05 16:41 | 44.65375 | 18.68728 | 35965 ft | 426 kts | 277° |
| 2026-05-05 16:42 | 44.65960 | 18.60451 | 35963 ft | 426 kts | 277° |
| 2026-05-05 16:42 | 44.66540 | 18.52161 | 35953 ft | 426 kts | 277° |
| 2026-05-05 16:43 | 44.67114 | 18.43875 | 35953 ft | 426 kts | 277° |
| 2026-05-05 16:43 | 44.67681 | 18.35577 | 35956 ft | 426 kts | 277° |
| 2026-05-05 16:44 | 44.68243 | 18.27286 | 35961 ft | 426 kts | 277° |
| 2026-05-05 16:44 | 44.68798 | 18.19001 | 35955 ft | 425 kts | 277° |
| 2026-05-05 16:45 | 44.69343 | 18.10772 | 35959 ft | 425 kts | 277° |
| 2026-05-05 16:45 | 44.69885 | 18.02505 | 35960 ft | 425 kts | 276° |
| 2026-05-05 16:46 | 44.70419 | 17.94245 | 35966 ft | 424 kts | 276° |
| 2026-05-05 16:46 | 44.70948 | 17.85999 | 35962 ft | 423 kts | 276° |
| 2026-05-05 16:47 | 44.71469 | 17.77766 | 35967 ft | 423 kts | 276° |
| 2026-05-05 16:47 | 44.71984 | 17.69533 | 35968 ft | 422 kts | 276° |
| 2026-05-05 16:48 | 44.72493 | 17.61308 | 35969 ft | 422 kts | 276° |
| 2026-05-05 16:48 | 44.72911 | 17.54473 | 35979 ft | 422 kts | 276° |
| 2026-05-05 16:49 | 44.73409 | 17.46248 | 35979 ft | 422 kts | 276° |
| 2026-05-05 16:49 | 44.73901 | 17.38026 | 35982 ft | 422 kts | 276° |
| 2026-05-05 16:50 | 44.74387 | 17.29795 | 35978 ft | 422 kts | 276° |
| 2026-05-05 16:50 | 44.74867 | 17.21567 | 35985 ft | 422 kts | 276° |
| 2026-05-05 16:51 | 44.75342 | 17.13328 | 35981 ft | 423 kts | 276° |
| 2026-05-05 16:51 | 44.75811 | 17.05089 | 35981 ft | 423 kts | 276° |
| 2026-05-05 16:52 | 44.76270 | 16.96903 | 35984 ft | 422 kts | 276° |
| 2026-05-05 16:52 | 44.76727 | 16.88661 | 35979 ft | 423 kts | 276° |
| 2026-05-05 16:53 | 44.77180 | 16.80397 | 35974 ft | 423 kts | 276° |
| 2026-05-05 16:53 | 44.77625 | 16.72148 | 35981 ft | 422 kts | 276° |
| 2026-05-05 16:54 | 44.78064 | 16.63907 | 35986 ft | 422 kts | 275° |
| 2026-05-05 16:54 | 44.78496 | 16.55680 | 35985 ft | 421 kts | 275° |
| 2026-05-05 16:55 | 44.78921 | 16.47462 | 35987 ft | 421 kts | 275° |
| 2026-05-05 16:55 | 44.79340 | 16.39253 | 35989 ft | 420 kts | 275° |
| 2026-05-05 16:56 | 44.79753 | 16.31059 | 35993 ft | 419 kts | 275° |
| 2026-05-05 16:56 | 44.80160 | 16.22868 | 36003 ft | 419 kts | 275° |
| 2026-05-05 16:57 | 44.80560 | 16.14686 | 36006 ft | 419 kts | 275° |
| 2026-05-05 16:57 | 44.80952 | 16.06553 | 36009 ft | 418 kts | 275° |
| 2026-05-05 16:58 | 44.81341 | 15.98367 | 36013 ft | 419 kts | 275° |
| 2026-05-05 16:58 | 44.81724 | 15.90172 | 36011 ft | 420 kts | 275° |
| 2026-05-05 16:59 | 44.82102 | 15.81963 | 36020 ft | 420 kts | 274° |
| 2026-05-05 16:59 | 44.82475 | 15.73734 | 36023 ft | 421 kts | 274° |
| 2026-05-05 17:00 | 44.82842 | 15.65500 | 36028 ft | 421 kts | 274° |
| 2026-05-05 17:00 | 44.83203 | 15.57261 | 36023 ft | 421 kts | 274° |
| 2026-05-05 17:01 | 44.83557 | 15.49071 | 36020 ft | 422 kts | 274° |
| 2026-05-05 17:01 | 44.83906 | 15.40825 | 36017 ft | 421 kts | 274° |
| 2026-05-05 17:02 | 44.84250 | 15.32584 | 36017 ft | 421 kts | 274° |
| 2026-05-05 17:02 | 44.84586 | 15.24377 | 36002 ft | 418 kts | 274° |
| 2026-05-05 17:03 | 44.84913 | 15.16236 | 36018 ft | 415 kts | 273° |
| 2026-05-05 17:03 | 44.85234 | 15.08131 | 36010 ft | 413 kts | 273° |
| 2026-05-05 17:04 | 44.85546 | 15.00105 | 36013 ft | 412 kts | 273° |
| 2026-05-05 17:04 | 44.85853 | 14.92055 | 36034 ft | 411 kts | 273° |
| 2026-05-05 17:05 | 44.86154 | 14.84011 | 36019 ft | 411 kts | 273° |
| 2026-05-05 17:05 | 44.86450 | 14.75962 | 36021 ft | 411 kts | 273° |
| 2026-05-05 17:06 | 44.86739 | 14.67917 | 36022 ft | 412 kts | 273° |
| 2026-05-05 17:06 | 44.87024 | 14.59853 | 36017 ft | 410 kts | 272° |
| 2026-05-05 17:07 | 44.87300 | 14.51882 | 36011 ft | 404 kts | 272° |
| 2026-05-05 17:07 | 44.87567 | 14.44006 | 36022 ft | 401 kts | 272° |
| 2026-05-05 17:08 | 44.87824 | 14.36274 | 35998 ft | 383 kts | 272° |
| 2026-05-05 17:08 | 44.88064 | 14.28908 | 36014 ft | 374 kts | 272° |
| 2026-05-05 17:09 | 44.88182 | 14.25206 | 35693 ft | 385 kts | 272° |
| 2026-05-05 17:09 | 44.88305 | 14.21316 | 35069 ft | 407 kts | 272° |
| 2026-05-05 17:09 | 44.88432 | 14.17265 | 34474 ft | 416 kts | 272° |
| 2026-05-05 17:09 | 44.88559 | 14.13184 | 33856 ft | 417 kts | 271° |
| 2026-05-05 17:10 | 44.88683 | 14.09150 | 33187 ft | 418 kts | 271° |
| 2026-05-05 17:10 | 44.88808 | 14.05046 | 32532 ft | 419 kts | 271° |
| 2026-05-05 17:10 | 44.88932 | 14.00942 | 31895 ft | 419 kts | 271° |
| 2026-05-05 17:10 | 44.89054 | 13.96831 | 31261 ft | 420 kts | 271° |
| 2026-05-05 17:11 | 44.89177 | 13.92711 | 30651 ft | 420 kts | 272° |
| 2026-05-05 17:11 | 44.89472 | 13.88611 | 30037 ft | 421 kts | 277° |
| 2026-05-05 17:11 | 44.89933 | 13.84530 | 29342 ft | 421 kts | 278° |
| 2026-05-05 17:11 | 44.90437 | 13.80459 | 28657 ft | 420 kts | 279° |
| 2026-05-05 17:12 | 44.90944 | 13.76399 | 27985 ft | 420 kts | 279° |
| 2026-05-05 17:12 | 44.91441 | 13.72348 | 27336 ft | 419 kts | 279° |
| 2026-05-05 17:12 | 44.91926 | 13.68297 | 26698 ft | 418 kts | 278° |
| 2026-05-05 17:12 | 44.92399 | 13.64257 | 26078 ft | 417 kts | 278° |
| 2026-05-05 17:13 | 44.92860 | 13.60265 | 25471 ft | 416 kts | 278° |
| 2026-05-05 17:13 | 44.93321 | 13.56241 | 24919 ft | 414 kts | 278° |
| 2026-05-05 17:13 | 44.93776 | 13.52246 | 24424 ft | 410 kts | 278° |
| 2026-05-05 17:13 | 44.94225 | 13.48292 | 23923 ft | 407 kts | 278° |
| 2026-05-05 17:14 | 44.94669 | 13.44364 | 23422 ft | 404 kts | 278° |
| 2026-05-05 17:14 | 44.95110 | 13.40459 | 22852 ft | 401 kts | 278° |
| 2026-05-05 17:14 | 44.95546 | 13.36587 | 22297 ft | 398 kts | 278° |
| 2026-05-05 17:14 | 44.95984 | 13.32685 | 21747 ft | 395 kts | 278° |
| 2026-05-05 17:15 | 44.96410 | 13.28877 | 21239 ft | 391 kts | 277° |
| 2026-05-05 17:15 | 44.96832 | 13.25097 | 20734 ft | 388 kts | 277° |
| 2026-05-05 17:15 | 44.97249 | 13.21343 | 20241 ft | 385 kts | 277° |
| 2026-05-05 17:15 | 44.97662 | 13.17617 | 19800 ft | 382 kts | 277° |
| 2026-05-05 17:16 | 44.98070 | 13.13929 | 19364 ft | 378 kts | 277° |
| 2026-05-05 17:16 | 44.98472 | 13.10280 | 18941 ft | 374 kts | 277° |
| 2026-05-05 17:16 | 44.98868 | 13.06661 | 18518 ft | 371 kts | 277° |
| 2026-05-05 17:16 | 44.99257 | 13.03072 | 18078 ft | 368 kts | 276° |
| 2026-05-05 17:17 | 44.99640 | 12.99511 | 17590 ft | 365 kts | 276° |
| 2026-05-05 17:17 | 45.00019 | 12.95978 | 17151 ft | 362 kts | 276° |
| 2026-05-05 17:17 | 45.00393 | 12.92482 | 16766 ft | 357 kts | 276° |
| 2026-05-05 17:17 | 45.00762 | 12.89032 | 16386 ft | 353 kts | 276° |
| 2026-05-05 17:18 | 45.01125 | 12.85633 | 16095 ft | 346 kts | 276° |
| 2026-05-05 17:18 | 45.01476 | 12.82340 | 15846 ft | 340 kts | 276° |
| 2026-05-05 17:18 | 45.01823 | 12.79066 | 15590 ft | 333 kts | 276° |
| 2026-05-05 17:18 | 45.02163 | 12.75858 | 15339 ft | 327 kts | 276° |
| 2026-05-05 17:19 | 45.02495 | 12.72705 | 15093 ft | 322 kts | 276° |
| 2026-05-05 17:19 | 45.02822 | 12.69602 | 14846 ft | 316 kts | 276° |
| 2026-05-05 17:19 | 45.03142 | 12.66551 | 14604 ft | 312 kts | 276° |
| 2026-05-05 17:19 | 45.03456 | 12.63541 | 14361 ft | 307 kts | 276° |
| 2026-05-05 17:20 | 45.03766 | 12.60573 | 14113 ft | 303 kts | 276° |
| 2026-05-05 17:20 | 45.04071 | 12.57644 | 13884 ft | 299 kts | 275° |
| 2026-05-05 17:20 | 45.04371 | 12.54750 | 13632 ft | 295 kts | 275° |
| 2026-05-05 17:20 | 45.04667 | 12.51889 | 13360 ft | 292 kts | 275° |
| 2026-05-05 17:21 | 45.04958 | 12.49070 | 13096 ft | 288 kts | 275° |
| 2026-05-05 17:21 | 45.05245 | 12.46280 | 12794 ft | 287 kts | 275° |
| 2026-05-05 17:21 | 45.05532 | 12.43479 | 12409 ft | 288 kts | 275° |
| 2026-05-05 17:22 | 45.06106 | 12.37880 | 11786 ft | 285 kts | 276° |
| 2026-05-05 17:22 | 45.06389 | 12.35117 | 11535 ft | 282 kts | 276° |
| 2026-05-05 17:22 | 45.06667 | 12.32384 | 11285 ft | 279 kts | 276° |
| 2026-05-05 17:22 | 45.06998 | 12.29711 | 11037 ft | 278 kts | 286° |
| 2026-05-05 17:23 | 45.07947 | 12.27313 | 10799 ft | 279 kts | 309° |
| 2026-05-05 17:23 | 45.09410 | 12.25527 | 10624 ft | 277 kts | 320° |
| 2026-05-05 17:23 | 45.10960 | 12.23910 | 10433 ft | 276 kts | 321° |
| 2026-05-05 17:23 | 45.12506 | 12.22320 | 10266 ft | 274 kts | 321° |
| 2026-05-05 17:24 | 45.14042 | 12.20731 | 10098 ft | 272 kts | 321° |
| 2026-05-05 17:24 | 45.15566 | 12.19143 | 9930 ft | 271 kts | 321° |
| 2026-05-05 17:24 | 45.17075 | 12.17561 | 9754 ft | 269 kts | 320° |
| 2026-05-05 17:24 | 45.18576 | 12.15980 | 9571 ft | 268 kts | 320° |
| 2026-05-05 17:25 | 45.20066 | 12.14407 | 9390 ft | 267 kts | 320° |
| 2026-05-05 17:25 | 45.21049 | 12.13366 | 9265 ft | 267 kts | 320° |
| 2026-05-05 17:25 | 45.22370 | 12.11967 | 9089 ft | 267 kts | 320° |
| 2026-05-05 17:25 | 45.23857 | 12.10391 | 8885 ft | 267 kts | 320° |
| 2026-05-05 17:26 | 45.25345 | 12.08811 | 8682 ft | 268 kts | 320° |
| 2026-05-05 17:26 | 45.26837 | 12.07228 | 8482 ft | 268 kts | 320° |
| 2026-05-05 17:26 | 45.28330 | 12.05641 | 8286 ft | 268 kts | 320° |
| 2026-05-05 17:26 | 45.29817 | 12.04059 | 8083 ft | 267 kts | 320° |
| 2026-05-05 17:27 | 45.31306 | 12.02473 | 7894 ft | 267 kts | 320° |
| 2026-05-05 17:27 | 45.32789 | 12.00893 | 7690 ft | 266 kts | 320° |
| 2026-05-05 17:27 | 45.34271 | 11.99313 | 7499 ft | 265 kts | 320° |
| 2026-05-05 17:27 | 45.35745 | 11.97740 | 7317 ft | 264 kts | 320° |
| 2026-05-05 17:28 | 45.37214 | 11.96172 | 7067 ft | 264 kts | 320° |
| 2026-05-05 17:28 | 45.38677 | 11.94610 | 6864 ft | 263 kts | 320° |
| 2026-05-05 17:28 | 45.40144 | 11.93041 | 6663 ft | 265 kts | 320° |
| 2026-05-05 17:28 | 45.41617 | 11.91464 | 6444 ft | 265 kts | 320° |
| 2026-05-05 17:29 | 45.43080 | 11.89892 | 6214 ft | 263 kts | 321° |
| 2026-05-05 17:29 | 45.44532 | 11.88332 | 5951 ft | 261 kts | 321° |
| 2026-05-05 17:29 | 45.45974 | 11.86781 | 5639 ft | 258 kts | 321° |
| 2026-05-05 17:29 | 45.47387 | 11.85259 | 5323 ft | 252 kts | 321° |
| 2026-05-05 17:30 | 45.48767 | 11.83773 | 5031 ft | 246 kts | 321° |
| 2026-05-05 17:30 | 45.50118 | 11.82305 | 4729 ft | 242 kts | 321° |
| 2026-05-05 17:30 | 45.51567 | 11.81119 | 4408 ft | 242 kts | 344° |
| 2026-05-05 17:30 | 45.53234 | 11.81131 | 4128 ft | 245 kts | 17° |
| 2026-05-05 17:31 | 45.54678 | 11.82413 | 3833 ft | 250 kts | 50° |
| 2026-05-05 17:31 | 45.55527 | 11.84523 | 3557 ft | 249 kts | 68° |
| 2026-05-05 17:31 | 45.56151 | 11.86795 | 3271 ft | 240 kts | 70° |
| 2026-05-05 17:31 | 45.56721 | 11.88966 | 2982 ft | 227 kts | 70° |
| 2026-05-05 17:32 | 45.57262 | 11.91026 | 2666 ft | 217 kts | 70° |
| 2026-05-05 17:32 | 45.57616 | 11.92371 | 2440 ft | 212 kts | 70° |
| 2026-05-05 17:32 | 45.58127 | 11.94298 | 2127 ft | 203 kts | 70° |
| 2026-05-05 17:32 | 45.58617 | 11.96140 | 1825 ft | 194 kts | 71° |
| 2026-05-05 17:33 | 45.59089 | 11.97906 | 1537 ft | 186 kts | 70° |
| 2026-05-05 17:33 | 45.59540 | 11.99587 | 1279 ft | 178 kts | 70° |
| 2026-05-05 17:33 | 45.59971 | 12.01197 | 1069 ft | 168 kts | 70° |
| 2026-05-05 17:33 | 45.60394 | 12.02778 | 947 ft | 173 kts | 69° |
| 2026-05-05 17:34 | 45.60825 | 12.04384 | 799 ft | 172 kts | 69° |
| 2026-05-05 17:34 | 45.61234 | 12.05913 | 647 ft | 156 kts | 69° |
| 2026-05-05 17:34 | 45.61601 | 12.07277 | 527 ft | 138 kts | 69° |
| 2026-05-05 17:34 | 45.61929 | 12.08486 | 628 ft | 133 kts | 68° |
| 2026-05-05 17:35 | 45.62284 | 12.09725 | 783 ft | 133 kts | 67° |
| 2026-05-05 17:35 | 45.62604 | 12.10954 | 834 ft | 131 kts | 70° |
| 2026-05-05 17:35 | 45.62922 | 12.12182 | 893 ft | 132 kts | 69° |
| 2026-05-05 17:35 | 45.63273 | 12.13430 | 839 ft | 139 kts | 69° |
| 2026-05-05 17:36 | 45.63625 | 12.14731 | 744 ft | 143 kts | 70° |
| 2026-05-05 17:36 | 45.63951 | 12.16038 | 514 ft | 137 kts | 69° |
| 2026-05-05 17:36 | 45.64286 | 12.17291 | 245 ft | 133 kts | 68° |
| 2026-05-05 17:36 | 45.64600 | 12.18481 | 59 ft | 119 kts | 69° |
| 2026-05-05 17:37 | 45.64850 | 12.19407 | 60 ft | 79 kts | 69° |
| 2026-05-05 17:37 | 45.64993 | 12.19941 | 55 ft | 36 kts | 68° |
| 2026-05-05 17:37 | 45.65063 | 12.20145 | 61 ft | 19 kts | 48° |
| 2026-05-05 17:37 | 45.65173 | 12.20247 | 62 ft | 12 kts | 26° |
| 2026-05-05 17:38 | 45.65229 | 12.20285 | 59 ft | 9 kts | 25° |
| 2026-05-05 17:38 | 45.65288 | 12.20292 | 55 ft | 9 kts | 343° |
| 2026-05-05 17:38 | 45.65338 | 12.20268 | 60 ft | 4 kts | 340° |
| 2026-05-05 17:38 | 45.65344 | 12.20264 | 55 ft | 0 kts | 341° |